sensor_id;sensor_type;location;lat;lon;timestamp;P1;durP1;ratioP1;P2;durP2;ratioP2
41629;SDS011;27322;49.488;8.480;2023-02-22T00:00:21;15.02;;;8.10;;
41629;SDS011;27322;49.488;8.480;2023-02-22T00:02:54;13.75;;;8.05;;
41629;SDS011;27322;49.488;8.480;2023-02-22T00:05:24;16.73;;;8.32;;
41629;SDS011;27322;49.488;8.480;2023-02-22T00:07:52;17.50;;;8.50;;
41629;SDS011;27322;49.488;8.480;2023-02-22T00:10:22;14.60;;;8.10;;
41629;SDS011;27322;49.488;8.480;2023-02-22T00:12:49;16.75;;;9.43;;
41629;SDS011;27322;49.488;8.480;2023-02-22T00:15:17;14.30;;;8.02;;
41629;SDS011;27322;49.488;8.480;2023-02-22T00:17:44;16.63;;;8.55;;
41629;SDS011;27322;49.488;8.480;2023-02-22T00:20:10;14.32;;;7.95;;
41629;SDS011;27322;49.488;8.480;2023-02-22T00:22:45;15.15;;;8.13;;
41629;SDS011;27322;49.488;8.480;2023-02-22T00:25:15;14.35;;;8.15;;
41629;SDS011;27322;49.488;8.480;2023-02-22T00:27:42;14.05;;;8.40;;
41629;SDS011;27322;49.488;8.480;2023-02-22T00:30:08;14.45;;;8.20;;
41629;SDS011;27322;49.488;8.480;2023-02-22T00:32:43;14.75;;;7.68;;
41629;SDS011;27322;49.488;8.480;2023-02-22T00:35:13;12.45;;;6.60;;
41629;SDS011;27322;49.488;8.480;2023-02-22T00:37:40;15.35;;;7.60;;
41629;SDS011;27322;49.488;8.480;2023-02-22T00:40:07;15.00;;;8.10;;
41629;SDS011;27322;49.488;8.480;2023-02-22T00:42:37;15.98;;;8.27;;
41629;SDS011;27322;49.488;8.480;2023-02-22T00:45:03;15.57;;;8.13;;
41629;SDS011;27322;49.488;8.480;2023-02-22T00:47:29;13.57;;;7.97;;
41629;SDS011;27322;49.488;8.480;2023-02-22T00:49:55;14.57;;;7.68;;
41629;SDS011;27322;49.488;8.480;2023-02-22T00:52:21;20.55;;;9.13;;
41629;SDS011;27322;49.488;8.480;2023-02-22T00:54:46;16.58;;;8.70;;
41629;SDS011;27322;49.488;8.480;2023-02-22T00:57:12;16.65;;;9.18;;
41629;SDS011;27322;49.488;8.480;2023-02-22T00:59:38;17.52;;;8.68;;
41629;SDS011;27322;49.488;8.480;2023-02-22T01:02:03;17.30;;;8.88;;
41629;SDS011;27322;49.488;8.480;2023-02-22T01:04:29;18.45;;;8.98;;
41629;SDS011;27322;49.488;8.480;2023-02-22T01:06:55;16.48;;;8.60;;
41629;SDS011;27322;49.488;8.480;2023-02-22T01:09:20;18.50;;;8.38;;
41629;SDS011;27322;49.488;8.480;2023-02-22T01:11:47;17.13;;;8.65;;
41629;SDS011;27322;49.488;8.480;2023-02-22T01:14:19;18.27;;;9.10;;
41629;SDS011;27322;49.488;8.480;2023-02-22T01:16:45;17.40;;;9.43;;
41629;SDS011;27322;49.488;8.480;2023-02-22T01:19:10;17.60;;;9.65;;
41629;SDS011;27322;49.488;8.480;2023-02-22T01:21:38;17.75;;;9.48;;
41629;SDS011;27322;49.488;8.480;2023-02-22T01:24:04;14.65;;;8.88;;
41629;SDS011;27322;49.488;8.480;2023-02-22T01:26:30;17.15;;;9.20;;
41629;SDS011;27322;49.488;8.480;2023-02-22T01:28:56;20.13;;;9.68;;
41629;SDS011;27322;49.488;8.480;2023-02-22T01:31:21;17.77;;;9.38;;
41629;SDS011;27322;49.488;8.480;2023-02-22T01:33:48;18.33;;;9.68;;
41629;SDS011;27322;49.488;8.480;2023-02-22T01:36:15;16.50;;;9.02;;
41629;SDS011;27322;49.488;8.480;2023-02-22T01:38:43;19.45;;;9.35;;
41629;SDS011;27322;49.488;8.480;2023-02-22T01:41:09;19.60;;;8.90;;
41629;SDS011;27322;49.488;8.480;2023-02-22T01:43:36;15.90;;;8.55;;
41629;SDS011;27322;49.488;8.480;2023-02-22T01:46:05;14.82;;;8.45;;
41629;SDS011;27322;49.488;8.480;2023-02-22T01:51:34;15.77;;;9.23;;
41629;SDS011;27322;49.488;8.480;2023-02-22T01:54:04;20.63;;;9.73;;
41629;SDS011;27322;49.488;8.480;2023-02-22T01:56:36;17.75;;;9.73;;
41629;SDS011;27322;49.488;8.480;2023-02-22T01:59:05;18.42;;;9.60;;
41629;SDS011;27322;49.488;8.480;2023-02-22T02:01:34;15.82;;;9.05;;
41629;SDS011;27322;49.488;8.480;2023-02-22T02:04:03;20.25;;;9.20;;
41629;SDS011;27322;49.488;8.480;2023-02-22T02:06:35;16.80;;;9.60;;
41629;SDS011;27322;49.488;8.480;2023-02-22T02:09:04;17.95;;;8.77;;
41629;SDS011;27322;49.488;8.480;2023-02-22T02:11:38;16.67;;;9.10;;
41629;SDS011;27322;49.488;8.480;2023-02-22T02:14:06;17.73;;;9.32;;
41629;SDS011;27322;49.488;8.480;2023-02-22T02:19:04;18.38;;;9.52;;
41629;SDS011;27322;49.488;8.480;2023-02-22T02:24:47;15.38;;;8.23;;
41629;SDS011;27322;49.488;8.480;2023-02-22T02:27:17;14.77;;;7.80;;
41629;SDS011;27322;49.488;8.480;2023-02-22T02:45:57;15.70;;;8.05;;
41629;SDS011;27322;49.488;8.480;2023-02-22T02:48:32;13.95;;;7.88;;
41629;SDS011;27322;49.488;8.480;2023-02-22T02:51:00;15.93;;;8.35;;
41629;SDS011;27322;49.488;8.480;2023-02-22T02:53:31;15.82;;;8.30;;
41629;SDS011;27322;49.488;8.480;2023-02-22T02:55:59;15.65;;;8.40;;
41629;SDS011;27322;49.488;8.480;2023-02-22T02:58:25;14.98;;;7.90;;
41629;SDS011;27322;49.488;8.480;2023-02-22T03:00:51;16.25;;;8.48;;
41629;SDS011;27322;49.488;8.480;2023-02-22T03:03:27;15.38;;;8.75;;
41629;SDS011;27322;49.488;8.480;2023-02-22T03:09:06;16.23;;;9.02;;
41629;SDS011;27322;49.488;8.480;2023-02-22T03:11:47;15.65;;;9.43;;
41629;SDS011;27322;49.488;8.480;2023-02-22T03:14:41;17.58;;;8.77;;
41629;SDS011;27322;49.488;8.480;2023-02-22T03:17:35;15.77;;;9.85;;
41629;SDS011;27322;49.488;8.480;2023-02-22T03:20:14;17.13;;;9.02;;
41629;SDS011;27322;49.488;8.480;2023-02-22T03:25:50;16.50;;;9.55;;
41629;SDS011;27322;49.488;8.480;2023-02-22T03:28:28;17.35;;;9.40;;
41629;SDS011;27322;49.488;8.480;2023-02-22T03:31:00;20.83;;;9.65;;
41629;SDS011;27322;49.488;8.480;2023-02-22T03:33:32;16.85;;;9.15;;
41629;SDS011;27322;49.488;8.480;2023-02-22T03:36:20;16.30;;;8.65;;
41629;SDS011;27322;49.488;8.480;2023-02-22T03:38:55;13.57;;;8.15;;
41629;SDS011;27322;49.488;8.480;2023-02-22T03:41:24;17.17;;;8.48;;
41629;SDS011;27322;49.488;8.480;2023-02-22T03:43:57;15.15;;;8.70;;
41629;SDS011;27322;49.488;8.480;2023-02-22T03:46:29;16.60;;;8.63;;
41629;SDS011;27322;49.488;8.480;2023-02-22T03:48:59;17.92;;;9.68;;
41629;SDS011;27322;49.488;8.480;2023-02-22T03:51:33;16.88;;;9.55;;
41629;SDS011;27322;49.488;8.480;2023-02-22T03:53:59;18.65;;;9.57;;
41629;SDS011;27322;49.488;8.480;2023-02-22T03:56:32;17.50;;;9.50;;
41629;SDS011;27322;49.488;8.480;2023-02-22T03:59:06;16.17;;;9.18;;
41629;SDS011;27322;49.488;8.480;2023-02-22T04:01:34;19.58;;;8.95;;
41629;SDS011;27322;49.488;8.480;2023-02-22T04:04:01;16.63;;;8.70;;
41629;SDS011;27322;49.488;8.480;2023-02-22T04:06:27;17.08;;;9.05;;
41629;SDS011;27322;49.488;8.480;2023-02-22T04:08:53;17.30;;;9.05;;
41629;SDS011;27322;49.488;8.480;2023-02-22T04:11:19;17.45;;;9.27;;
41629;SDS011;27322;49.488;8.480;2023-02-22T04:13:45;19.10;;;9.05;;
41629;SDS011;27322;49.488;8.480;2023-02-22T04:16:11;16.10;;;9.18;;
41629;SDS011;27322;49.488;8.480;2023-02-22T04:18:36;19.45;;;9.32;;
41629;SDS011;27322;49.488;8.480;2023-02-22T04:21:02;16.08;;;8.88;;
41629;SDS011;27322;49.488;8.480;2023-02-22T04:23:27;15.25;;;8.50;;
41629;SDS011;27322;49.488;8.480;2023-02-22T04:25:53;15.15;;;9.10;;
41629;SDS011;27322;49.488;8.480;2023-02-22T04:28:19;16.70;;;8.88;;
41629;SDS011;27322;49.488;8.480;2023-02-22T04:30:45;17.40;;;9.13;;
41629;SDS011;27322;49.488;8.480;2023-02-22T04:33:11;18.42;;;8.68;;
41629;SDS011;27322;49.488;8.480;2023-02-22T04:35:37;17.13;;;9.27;;
41629;SDS011;27322;49.488;8.480;2023-02-22T04:38:03;16.67;;;9.07;;
41629;SDS011;27322;49.488;8.480;2023-02-22T04:40:29;17.35;;;9.13;;
41629;SDS011;27322;49.488;8.480;2023-02-22T04:42:55;17.30;;;9.52;;
41629;SDS011;27322;49.488;8.480;2023-02-22T04:45:21;19.08;;;9.07;;
41629;SDS011;27322;49.488;8.480;2023-02-22T04:47:47;17.25;;;9.05;;
41629;SDS011;27322;49.488;8.480;2023-02-22T04:50:12;16.23;;;9.45;;
41629;SDS011;27322;49.488;8.480;2023-02-22T04:52:39;17.10;;;8.90;;
41629;SDS011;27322;49.488;8.480;2023-02-22T04:55:05;18.40;;;9.10;;
41629;SDS011;27322;49.488;8.480;2023-02-22T04:57:31;17.88;;;9.10;;
41629;SDS011;27322;49.488;8.480;2023-02-22T04:59:57;18.25;;;9.45;;
41629;SDS011;27322;49.488;8.480;2023-02-22T05:02:23;17.92;;;9.85;;
41629;SDS011;27322;49.488;8.480;2023-02-22T05:04:48;18.42;;;9.93;;
41629;SDS011;27322;49.488;8.480;2023-02-22T05:07:14;19.40;;;10.20;;
41629;SDS011;27322;49.488;8.480;2023-02-22T05:09:41;15.82;;;9.60;;
41629;SDS011;27322;49.488;8.480;2023-02-22T05:12:07;20.02;;;8.70;;
41629;SDS011;27322;49.488;8.480;2023-02-22T05:14:33;17.70;;;9.60;;
41629;SDS011;27322;49.488;8.480;2023-02-22T05:16:59;16.67;;;9.20;;
41629;SDS011;27322;49.488;8.480;2023-02-22T05:19:26;15.43;;;9.02;;
41629;SDS011;27322;49.488;8.480;2023-02-22T05:21:52;13.90;;;8.40;;
41629;SDS011;27322;49.488;8.480;2023-02-22T05:24:17;17.02;;;9.45;;
41629;SDS011;27322;49.488;8.480;2023-02-22T05:26:43;20.25;;;10.68;;
41629;SDS011;27322;49.488;8.480;2023-02-22T05:29:10;19.10;;;10.05;;
41629;SDS011;27322;49.488;8.480;2023-02-22T05:31:36;19.75;;;10.48;;
41629;SDS011;27322;49.488;8.480;2023-02-22T05:34:02;16.90;;;9.65;;
41629;SDS011;27322;49.488;8.480;2023-02-22T05:36:27;16.67;;;9.75;;
41629;SDS011;27322;49.488;8.480;2023-02-22T05:38:53;18.33;;;9.23;;
41629;SDS011;27322;49.488;8.480;2023-02-22T05:41:19;17.63;;;9.60;;
41629;SDS011;27322;49.488;8.480;2023-02-22T05:43:45;18.52;;;9.73;;
41629;SDS011;27322;49.488;8.480;2023-02-22T05:46:12;21.80;;;9.38;;
41629;SDS011;27322;49.488;8.480;2023-02-22T05:48:38;16.23;;;9.88;;
41629;SDS011;27322;49.488;8.480;2023-02-22T05:51:04;16.33;;;9.70;;
41629;SDS011;27322;49.488;8.480;2023-02-22T05:53:30;17.58;;;9.93;;
41629;SDS011;27322;49.488;8.480;2023-02-22T05:55:55;18.38;;;10.52;;
41629;SDS011;27322;49.488;8.480;2023-02-22T05:58:21;16.95;;;10.02;;
41629;SDS011;27322;49.488;8.480;2023-02-22T06:00:47;17.30;;;10.02;;
41629;SDS011;27322;49.488;8.480;2023-02-22T06:03:12;17.58;;;10.30;;
41629;SDS011;27322;49.488;8.480;2023-02-22T06:05:38;18.48;;;10.07;;
41629;SDS011;27322;49.488;8.480;2023-02-22T06:08:04;18.40;;;9.85;;
41629;SDS011;27322;49.488;8.480;2023-02-22T06:10:31;18.92;;;10.20;;
41629;SDS011;27322;49.488;8.480;2023-02-22T06:12:57;16.35;;;10.05;;
41629;SDS011;27322;49.488;8.480;2023-02-22T06:15:23;17.75;;;9.65;;
41629;SDS011;27322;49.488;8.480;2023-02-22T06:17:50;17.73;;;9.63;;
41629;SDS011;27322;49.488;8.480;2023-02-22T06:20:17;16.25;;;9.30;;
41629;SDS011;27322;49.488;8.480;2023-02-22T06:22:51;20.73;;;10.65;;
41629;SDS011;27322;49.488;8.480;2023-02-22T06:25:19;20.25;;;12.15;;
41629;SDS011;27322;49.488;8.480;2023-02-22T06:27:46;17.75;;;11.10;;
41629;SDS011;27322;49.488;8.480;2023-02-22T06:30:12;23.27;;;11.13;;
41629;SDS011;27322;49.488;8.480;2023-02-22T06:32:39;18.45;;;10.48;;
41629;SDS011;27322;49.488;8.480;2023-02-22T06:35:05;22.65;;;11.48;;
41629;SDS011;27322;49.488;8.480;2023-02-22T06:37:31;18.58;;;10.45;;
41629;SDS011;27322;49.488;8.480;2023-02-22T06:39:56;20.00;;;10.13;;
41629;SDS011;27322;49.488;8.480;2023-02-22T06:42:22;18.25;;;9.93;;
41629;SDS011;27322;49.488;8.480;2023-02-22T06:44:48;19.88;;;10.32;;
41629;SDS011;27322;49.488;8.480;2023-02-22T06:47:13;19.33;;;10.40;;
41629;SDS011;27322;49.488;8.480;2023-02-22T06:49:39;19.45;;;10.82;;
41629;SDS011;27322;49.488;8.480;2023-02-22T06:52:05;19.15;;;10.63;;
41629;SDS011;27322;49.488;8.480;2023-02-22T06:54:32;18.50;;;10.50;;
41629;SDS011;27322;49.488;8.480;2023-02-22T06:56:58;18.23;;;10.38;;
41629;SDS011;27322;49.488;8.480;2023-02-22T06:59:23;17.05;;;10.40;;
41629;SDS011;27322;49.488;8.480;2023-02-22T07:01:49;19.00;;;10.82;;
41629;SDS011;27322;49.488;8.480;2023-02-22T07:04:15;19.35;;;10.88;;
41629;SDS011;27322;49.488;8.480;2023-02-22T07:06:47;20.33;;;10.07;;
41629;SDS011;27322;49.488;8.480;2023-02-22T07:09:14;18.60;;;10.60;;
41629;SDS011;27322;49.488;8.480;2023-02-22T07:11:41;20.23;;;10.70;;
41629;SDS011;27322;49.488;8.480;2023-02-22T07:14:07;21.02;;;11.15;;
41629;SDS011;27322;49.488;8.480;2023-02-22T07:16:33;20.27;;;10.38;;
41629;SDS011;27322;49.488;8.480;2023-02-22T07:18:59;23.52;;;12.07;;
41629;SDS011;27322;49.488;8.480;2023-02-22T07:21:26;21.38;;;10.88;;
41629;SDS011;27322;49.488;8.480;2023-02-22T07:23:53;17.80;;;10.32;;
41629;SDS011;27322;49.488;8.480;2023-02-22T07:26:20;22.88;;;10.90;;
41629;SDS011;27322;49.488;8.480;2023-02-22T07:28:46;21.00;;;11.02;;
41629;SDS011;27322;49.488;8.480;2023-02-22T07:31:11;22.85;;;10.95;;
41629;SDS011;27322;49.488;8.480;2023-02-22T07:33:37;22.55;;;12.60;;
41629;SDS011;27322;49.488;8.480;2023-02-22T07:36:03;23.42;;;12.80;;
41629;SDS011;27322;49.488;8.480;2023-02-22T07:38:30;19.95;;;11.60;;
41629;SDS011;27322;49.488;8.480;2023-02-22T07:40:56;18.42;;;10.88;;
41629;SDS011;27322;49.488;8.480;2023-02-22T07:43:22;20.13;;;11.18;;
41629;SDS011;27322;49.488;8.480;2023-02-22T07:45:52;25.10;;;11.35;;
41629;SDS011;27322;49.488;8.480;2023-02-22T07:48:19;23.95;;;11.30;;
41629;SDS011;27322;49.488;8.480;2023-02-22T07:50:47;21.65;;;11.02;;
41629;SDS011;27322;49.488;8.480;2023-02-22T07:53:14;17.70;;;10.38;;
41629;SDS011;27322;49.488;8.480;2023-02-22T07:55:44;18.90;;;11.18;;
41629;SDS011;27322;49.488;8.480;2023-02-22T07:58:12;19.60;;;10.55;;
41629;SDS011;27322;49.488;8.480;2023-02-22T08:00:39;18.60;;;10.82;;
41629;SDS011;27322;49.488;8.480;2023-02-22T08:03:08;18.52;;;11.15;;
41629;SDS011;27322;49.488;8.480;2023-02-22T08:05:37;22.73;;;11.65;;
41629;SDS011;27322;49.488;8.480;2023-02-22T08:08:04;18.48;;;10.23;;
41629;SDS011;27322;49.488;8.480;2023-02-22T08:10:31;24.05;;;10.48;;
41629;SDS011;27322;49.488;8.480;2023-02-22T08:12:57;23.17;;;11.38;;
41629;SDS011;27322;49.488;8.480;2023-02-22T08:15:25;19.88;;;11.35;;
41629;SDS011;27322;49.488;8.480;2023-02-22T08:18:02;21.83;;;10.98;;
41629;SDS011;27322;49.488;8.480;2023-02-22T08:20:30;20.58;;;11.02;;
41629;SDS011;27322;49.488;8.480;2023-02-22T08:22:56;18.67;;;11.18;;
41629;SDS011;27322;49.488;8.480;2023-02-22T08:25:23;20.00;;;11.38;;
41629;SDS011;27322;49.488;8.480;2023-02-22T08:27:51;19.83;;;10.93;;
41629;SDS011;27322;49.488;8.480;2023-02-22T08:30:22;19.73;;;11.45;;
41629;SDS011;27322;49.488;8.480;2023-02-22T08:32:48;19.10;;;10.93;;
41629;SDS011;27322;49.488;8.480;2023-02-22T08:35:15;15.98;;;10.57;;
41629;SDS011;27322;49.488;8.480;2023-02-22T08:37:42;16.80;;;10.13;;
41629;SDS011;27322;49.488;8.480;2023-02-22T08:40:09;15.43;;;9.40;;
41629;SDS011;27322;49.488;8.480;2023-02-22T08:42:36;18.15;;;10.18;;
41629;SDS011;27322;49.488;8.480;2023-02-22T08:45:01;16.20;;;10.00;;
41629;SDS011;27322;49.488;8.480;2023-02-22T08:47:27;16.10;;;9.60;;
41629;SDS011;27322;49.488;8.480;2023-02-22T08:49:53;17.70;;;10.13;;
41629;SDS011;27322;49.488;8.480;2023-02-22T08:52:19;15.95;;;9.60;;
41629;SDS011;27322;49.488;8.480;2023-02-22T08:54:45;19.35;;;10.80;;
41629;SDS011;27322;49.488;8.480;2023-02-22T08:57:11;19.15;;;10.98;;
41629;SDS011;27322;49.488;8.480;2023-02-22T08:59:37;17.90;;;10.80;;
41629;SDS011;27322;49.488;8.480;2023-02-22T09:02:03;19.20;;;10.90;;
41629;SDS011;27322;49.488;8.480;2023-02-22T09:04:29;17.20;;;10.80;;
41629;SDS011;27322;49.488;8.480;2023-02-22T09:06:54;18.98;;;11.23;;
41629;SDS011;27322;49.488;8.480;2023-02-22T09:09:20;17.25;;;11.20;;
41629;SDS011;27322;49.488;8.480;2023-02-22T09:11:46;17.90;;;10.68;;
41629;SDS011;27322;49.488;8.480;2023-02-22T09:14:12;19.90;;;11.35;;
41629;SDS011;27322;49.488;8.480;2023-02-22T09:16:39;16.05;;;10.52;;
41629;SDS011;27322;49.488;8.480;2023-02-22T09:19:05;19.15;;;11.45;;
41629;SDS011;27322;49.488;8.480;2023-02-22T09:21:30;18.73;;;11.70;;
41629;SDS011;27322;49.488;8.480;2023-02-22T09:23:56;18.77;;;11.57;;
41629;SDS011;27322;49.488;8.480;2023-02-22T09:26:22;21.35;;;13.15;;
41629;SDS011;27322;49.488;8.480;2023-02-22T09:28:51;18.05;;;11.50;;
41629;SDS011;27322;49.488;8.480;2023-02-22T09:31:16;20.63;;;11.70;;
41629;SDS011;27322;49.488;8.480;2023-02-22T09:33:42;17.88;;;10.93;;
41629;SDS011;27322;49.488;8.480;2023-02-22T09:36:08;17.80;;;11.75;;
41629;SDS011;27322;49.488;8.480;2023-02-22T09:38:34;19.80;;;12.10;;
41629;SDS011;27322;49.488;8.480;2023-02-22T09:48:50;20.48;;;10.85;;
41629;SDS011;27322;49.488;8.480;2023-02-22T09:51:41;16.60;;;11.27;;
41629;SDS011;27322;49.488;8.480;2023-02-22T09:54:27;16.95;;;10.88;;
41629;SDS011;27322;49.488;8.480;2023-02-22T09:57:01;18.48;;;10.40;;
41629;SDS011;27322;49.488;8.480;2023-02-22T09:59:34;16.88;;;10.70;;
41629;SDS011;27322;49.488;8.480;2023-02-22T10:05:02;15.18;;;10.50;;
41629;SDS011;27322;49.488;8.480;2023-02-22T10:07:52;17.75;;;10.18;;
41629;SDS011;27322;49.488;8.480;2023-02-22T10:10:22;18.83;;;11.00;;
41629;SDS011;27322;49.488;8.480;2023-02-22T10:12:54;17.85;;;10.82;;
41629;SDS011;27322;49.488;8.480;2023-02-22T10:28:46;19.85;;;10.25;;
41629;SDS011;27322;49.488;8.480;2023-02-22T10:31:33;17.38;;;10.43;;
41629;SDS011;27322;49.488;8.480;2023-02-22T10:34:08;18.65;;;10.40;;
41629;SDS011;27322;49.488;8.480;2023-02-22T10:36:38;18.13;;;10.27;;
41629;SDS011;27322;49.488;8.480;2023-02-22T10:39:14;19.23;;;10.23;;
41629;SDS011;27322;49.488;8.480;2023-02-22T10:41:51;15.43;;;10.38;;
41629;SDS011;27322;49.488;8.480;2023-02-22T10:44:21;18.67;;;9.63;;
41629;SDS011;27322;49.488;8.480;2023-02-22T10:46:46;14.65;;;9.98;;
41629;SDS011;27322;49.488;8.480;2023-02-22T10:49:14;20.35;;;11.02;;
41629;SDS011;27322;49.488;8.480;2023-02-22T10:54:22;19.45;;;11.10;;
41629;SDS011;27322;49.488;8.480;2023-02-22T10:56:53;20.08;;;11.82;;
41629;SDS011;27322;49.488;8.480;2023-02-22T10:59:27;20.25;;;12.70;;
41629;SDS011;27322;49.488;8.480;2023-02-22T11:01:55;15.40;;;11.50;;
41629;SDS011;27322;49.488;8.480;2023-02-22T11:04:21;18.40;;;11.05;;
41629;SDS011;27322;49.488;8.480;2023-02-22T11:06:48;18.45;;;11.82;;
41629;SDS011;27322;49.488;8.480;2023-02-22T11:09:23;17.55;;;11.70;;
41629;SDS011;27322;49.488;8.480;2023-02-22T11:12:16;14.93;;;10.90;;
41629;SDS011;27322;49.488;8.480;2023-02-22T11:14:40;18.42;;;11.15;;
41629;SDS011;27322;49.488;8.480;2023-02-22T11:17:06;17.58;;;11.43;;
41629;SDS011;27322;49.488;8.480;2023-02-22T11:19:34;14.95;;;10.70;;
41629;SDS011;27322;49.488;8.480;2023-02-22T11:24:46;16.73;;;11.52;;
41629;SDS011;27322;49.488;8.480;2023-02-22T11:27:24;17.40;;;11.60;;
41629;SDS011;27322;49.488;8.480;2023-02-22T11:29:57;16.35;;;10.68;;
41629;SDS011;27322;49.488;8.480;2023-02-22T11:32:34;14.70;;;9.73;;
41629;SDS011;27322;49.488;8.480;2023-02-22T11:38:18;15.85;;;9.80;;
41629;SDS011;27322;49.488;8.480;2023-02-22T11:43:41;16.05;;;10.63;;
41629;SDS011;27322;49.488;8.480;2023-02-22T11:46:10;13.82;;;9.50;;
41629;SDS011;27322;49.488;8.480;2023-02-22T11:48:59;16.10;;;9.90;;
41629;SDS011;27322;49.488;8.480;2023-02-22T11:51:33;15.50;;;10.10;;
41629;SDS011;27322;49.488;8.480;2023-02-22T11:56:52;15.57;;;9.82;;
41629;SDS011;27322;49.488;8.480;2023-02-22T12:16:00;13.35;;;8.25;;
41629;SDS011;27322;49.488;8.480;2023-02-22T12:21:19;15.73;;;9.30;;
41629;SDS011;27322;49.488;8.480;2023-02-22T12:24:06;15.30;;;10.13;;
41629;SDS011;27322;49.488;8.480;2023-02-22T12:26:41;15.85;;;11.05;;
41629;SDS011;27322;49.488;8.480;2023-02-22T12:29:18;17.13;;;10.27;;
41629;SDS011;27322;49.488;8.480;2023-02-22T12:35:08;15.65;;;9.90;;
41629;SDS011;27322;49.488;8.480;2023-02-22T12:48:41;14.65;;;10.50;;
41629;SDS011;27322;49.488;8.480;2023-02-22T12:53:53;17.17;;;10.88;;
41629;SDS011;27322;49.488;8.480;2023-02-22T12:56:28;16.73;;;11.00;;
41629;SDS011;27322;49.488;8.480;2023-02-22T13:02:17;18.60;;;11.45;;
41629;SDS011;27322;49.488;8.480;2023-02-22T13:04:46;19.00;;;11.68;;
41629;SDS011;27322;49.488;8.480;2023-02-22T13:10:06;18.88;;;11.68;;
41629;SDS011;27322;49.488;8.480;2023-02-22T13:40:29;17.50;;;10.43;;
41629;SDS011;27322;49.488;8.480;2023-02-22T13:43:21;18.75;;;11.05;;
41629;SDS011;27322;49.488;8.480;2023-02-22T13:51:02;16.67;;;11.10;;
41629;SDS011;27322;49.488;8.480;2023-02-22T13:53:35;19.05;;;10.80;;
41629;SDS011;27322;49.488;8.480;2023-02-22T13:56:11;16.98;;;10.82;;
41629;SDS011;27322;49.488;8.480;2023-02-22T13:58:45;16.85;;;10.05;;
41629;SDS011;27322;49.488;8.480;2023-02-22T14:06:44;16.67;;;10.43;;
41629;SDS011;27322;49.488;8.480;2023-02-22T14:09:14;15.88;;;10.25;;
41629;SDS011;27322;49.488;8.480;2023-02-22T14:11:45;15.05;;;10.35;;
41629;SDS011;27322;49.488;8.480;2023-02-22T14:14:12;14.65;;;9.35;;
41629;SDS011;27322;49.488;8.480;2023-02-22T14:16:41;15.98;;;10.40;;
41629;SDS011;27322;49.488;8.480;2023-02-22T14:19:16;18.67;;;10.95;;
41629;SDS011;27322;49.488;8.480;2023-02-22T14:21:54;14.55;;;9.85;;
41629;SDS011;27322;49.488;8.480;2023-02-22T14:24:20;15.67;;;9.93;;
41629;SDS011;27322;49.488;8.480;2023-02-22T14:26:53;15.55;;;9.55;;
41629;SDS011;27322;49.488;8.480;2023-02-22T14:29:27;15.13;;;9.52;;
41629;SDS011;27322;49.488;8.480;2023-02-22T14:32:01;14.95;;;9.70;;
41629;SDS011;27322;49.488;8.480;2023-02-22T14:37:08;15.80;;;9.48;;
41629;SDS011;27322;49.488;8.480;2023-02-22T14:39:38;17.42;;;9.88;;
41629;SDS011;27322;49.488;8.480;2023-02-22T14:42:35;14.77;;;9.40;;
41629;SDS011;27322;49.488;8.480;2023-02-22T14:45:16;15.32;;;9.60;;
41629;SDS011;27322;49.488;8.480;2023-02-22T14:55:48;14.20;;;8.38;;
41629;SDS011;27322;49.488;8.480;2023-02-22T14:58:21;15.38;;;8.75;;
41629;SDS011;27322;49.488;8.480;2023-02-22T15:00:53;16.17;;;8.68;;
41629;SDS011;27322;49.488;8.480;2023-02-22T15:05:46;14.52;;;8.73;;
41629;SDS011;27322;49.488;8.480;2023-02-22T15:08:14;14.35;;;8.45;;
41629;SDS011;27322;49.488;8.480;2023-02-22T15:10:43;13.23;;;7.65;;
41629;SDS011;27322;49.488;8.480;2023-02-22T15:13:14;15.73;;;9.13;;
41629;SDS011;27322;49.488;8.480;2023-02-22T15:15:57;19.52;;;9.73;;
41629;SDS011;27322;49.488;8.480;2023-02-22T15:26:41;13.30;;;8.57;;
41629;SDS011;27322;49.488;8.480;2023-02-22T15:29:24;14.75;;;9.15;;
41629;SDS011;27322;49.488;8.480;2023-02-22T15:31:56;18.50;;;8.98;;
41629;SDS011;27322;49.488;8.480;2023-02-22T15:34:26;15.10;;;9.45;;
41629;SDS011;27322;49.488;8.480;2023-02-22T15:36:55;12.75;;;8.43;;
41629;SDS011;27322;49.488;8.480;2023-02-22T15:39:30;15.40;;;8.73;;
41629;SDS011;27322;49.488;8.480;2023-02-22T15:42:05;15.50;;;9.10;;
41629;SDS011;27322;49.488;8.480;2023-02-22T15:44:48;13.95;;;8.15;;
41629;SDS011;27322;49.488;8.480;2023-02-22T15:47:22;14.15;;;8.13;;
41629;SDS011;27322;49.488;8.480;2023-02-22T15:55:29;16.15;;;9.15;;
41629;SDS011;27322;49.488;8.480;2023-02-22T15:57:56;18.60;;;9.40;;
41629;SDS011;27322;49.488;8.480;2023-02-22T16:00:26;15.65;;;7.97;;
41629;SDS011;27322;49.488;8.480;2023-02-22T16:03:07;15.02;;;7.65;;
41629;SDS011;27322;49.488;8.480;2023-02-22T16:05:37;16.17;;;8.55;;
41629;SDS011;27322;49.488;8.480;2023-02-22T16:08:12;15.00;;;8.13;;
41629;SDS011;27322;49.488;8.480;2023-02-22T16:10:44;14.77;;;8.80;;
41629;SDS011;27322;49.488;8.480;2023-02-22T16:13:39;18.48;;;8.73;;
41629;SDS011;27322;49.488;8.480;2023-02-22T16:18:46;12.82;;;6.93;;
41629;SDS011;27322;49.488;8.480;2023-02-22T16:21:20;13.02;;;7.30;;
41629;SDS011;27322;49.488;8.480;2023-02-22T16:23:47;13.35;;;7.55;;
41629;SDS011;27322;49.488;8.480;2023-02-22T16:26:30;14.77;;;7.18;;
41629;SDS011;27322;49.488;8.480;2023-02-22T16:29:06;12.75;;;7.28;;
41629;SDS011;27322;49.488;8.480;2023-02-22T16:31:37;13.38;;;7.03;;
41629;SDS011;27322;49.488;8.480;2023-02-22T16:34:04;13.23;;;6.32;;
41629;SDS011;27322;49.488;8.480;2023-02-22T16:36:50;12.48;;;6.97;;
41629;SDS011;27322;49.488;8.480;2023-02-22T16:39:19;15.48;;;7.72;;
41629;SDS011;27322;49.488;8.480;2023-02-22T16:41:46;14.88;;;7.60;;
41629;SDS011;27322;49.488;8.480;2023-02-22T16:44:14;14.40;;;7.35;;
41629;SDS011;27322;49.488;8.480;2023-02-22T16:46:41;12.52;;;6.88;;
41629;SDS011;27322;49.488;8.480;2023-02-22T16:49:08;11.25;;;6.80;;
41629;SDS011;27322;49.488;8.480;2023-02-22T16:51:45;12.23;;;6.40;;
41629;SDS011;27322;49.488;8.480;2023-02-22T16:54:39;14.77;;;6.80;;
41629;SDS011;27322;49.488;8.480;2023-02-22T16:57:09;12.93;;;7.38;;
41629;SDS011;27322;49.488;8.480;2023-02-22T16:59:41;13.00;;;7.20;;
41629;SDS011;27322;49.488;8.480;2023-02-22T17:02:10;14.60;;;7.68;;
41629;SDS011;27322;49.488;8.480;2023-02-22T17:04:39;14.02;;;7.53;;
41629;SDS011;27322;49.488;8.480;2023-02-22T17:07:05;12.95;;;7.05;;
41629;SDS011;27322;49.488;8.480;2023-02-22T17:09:33;11.95;;;6.65;;
41629;SDS011;27322;49.488;8.480;2023-02-22T17:11:59;14.60;;;7.57;;
41629;SDS011;27322;49.488;8.480;2023-02-22T17:14:29;14.95;;;7.20;;
41629;SDS011;27322;49.488;8.480;2023-02-22T17:16:57;14.27;;;7.40;;
41629;SDS011;27322;49.488;8.480;2023-02-22T17:19:24;13.98;;;7.28;;
41629;SDS011;27322;49.488;8.480;2023-02-22T17:21:49;14.05;;;7.43;;
41629;SDS011;27322;49.488;8.480;2023-02-22T17:24:16;14.63;;;7.72;;
41629;SDS011;27322;49.488;8.480;2023-02-22T17:26:44;15.55;;;7.60;;
41629;SDS011;27322;49.488;8.480;2023-02-22T17:29:10;15.55;;;7.60;;
41629;SDS011;27322;49.488;8.480;2023-02-22T17:31:37;13.45;;;7.80;;
41629;SDS011;27322;49.488;8.480;2023-02-22T17:34:03;17.70;;;7.95;;
41629;SDS011;27322;49.488;8.480;2023-02-22T17:36:30;14.88;;;8.55;;
41629;SDS011;27322;49.488;8.480;2023-02-22T17:38:57;15.20;;;8.18;;
41629;SDS011;27322;49.488;8.480;2023-02-22T17:41:23;13.85;;;8.07;;